createdAt,value
2023-10-05T00:02:25.064Z,98316.00
2023-10-05T00:04:55.328Z,98311.06
2023-10-05T00:07:25.716Z,98307.06
2023-10-05T00:09:53.856Z,98311.84
2023-10-05T00:12:24.415Z,98315.09
2023-10-05T00:15:05.875Z,98320.28
2023-10-05T00:17:36.373Z,98323.03
2023-10-05T00:20:08.537Z,98318.63
2023-10-05T00:22:38.314Z,98325.00
2023-10-05T00:25:07.524Z,98319.75
2023-10-05T00:27:37.171Z,98326.44
2023-10-05T00:30:07.820Z,98325.56
2023-10-05T00:32:37.025Z,98318.75
2023-10-05T00:35:17.842Z,98325.97
2023-10-05T00:37:48.444Z,98326.72
2023-10-05T00:40:27.973Z,98320.84
2023-10-05T00:42:56.817Z,98319.00
2023-10-05T00:45:32.121Z,98316.91
2023-10-05T00:48:10.394Z,98327.81
2023-10-05T00:50:41.121Z,98325.00
2023-10-05T00:53:11.194Z,98320.72
2023-10-05T00:55:40.667Z,98316.91
2023-10-05T00:58:14.087Z,98319.13
2023-10-05T01:00:52.042Z,98322.19
2023-10-05T01:03:35.240Z,98317.38
2023-10-05T01:06:13.210Z,98314.59
2023-10-05T01:08:51.290Z,98322.44
2023-10-05T01:11:27.344Z,98320.72
2023-10-05T01:13:59.570Z,98308.97
2023-10-05T01:16:33.126Z,98305.69
2023-10-05T01:19:01.747Z,98297.59
2023-10-05T01:21:29.788Z,98311.19
2023-10-05T01:24:00.260Z,98307.00
2023-10-05T01:26:28.373Z,98317.91
2023-10-05T01:28:57.271Z,98320.13
2023-10-05T01:31:25.432Z,98314.34
2023-10-05T01:33:53.438Z,98310.94
2023-10-05T01:36:24.133Z,98311.91
2023-10-05T01:38:55.681Z,98303.59
2023-10-05T01:41:28.988Z,98303.84
2023-10-05T01:43:59.232Z,98302.72
2023-10-05T01:46:27.712Z,98306.41
2023-10-05T01:48:57.610Z,98308.25
2023-10-05T01:51:26.631Z,98317.06
2023-10-05T01:54:00.405Z,98319.00
2023-10-05T01:56:30.587Z,98315.94
2023-10-05T01:59:01.210Z,98304.69
2023-10-05T02:01:30.287Z,98306.41
2023-10-05T02:03:59.276Z,98299.19
2023-10-05T02:06:29.804Z,98308.38
2023-10-05T02:08:58.159Z,98304.97
2023-10-05T02:11:26.474Z,98309.03
2023-10-05T02:13:59.316Z,98304.50
2023-10-05T02:16:28.829Z,98313.56
2023-10-05T02:18:57.747Z,98315.53
2023-10-05T02:21:32.178Z,98313.84
2023-10-05T02:24:11.768Z,98315.53
2023-10-05T02:26:54.526Z,98311.66
2023-10-05T02:29:24.786Z,98321.06
2023-10-05T02:32:04.386Z,98310.63
2023-10-05T02:34:39.629Z,98311.34
2023-10-05T02:37:09.421Z,98314.72
2023-10-05T02:39:37.870Z,98307.38
2023-10-05T02:42:13.206Z,98311.78
2023-10-05T02:44:42.974Z,98304.81
2023-10-05T02:47:12.153Z,98295.91
2023-10-05T02:49:41.634Z,98300.16
2023-10-05T02:52:14.313Z,98297.47
2023-10-05T02:54:42.550Z,98291.66
2023-10-05T02:57:11.983Z,98294.53
2023-10-05T02:59:39.923Z,98295.97
2023-10-05T03:02:10.827Z,98292.56
2023-10-05T03:04:48.753Z,98288.41
2023-10-05T03:07:17.559Z,98290.44
2023-10-05T03:09:45.598Z,98291.44
2023-10-05T03:12:13.728Z,98286.03
2023-10-05T03:14:44.476Z,98282.38
2023-10-05T03:17:15.852Z,98280.16
2023-10-05T03:19:44.708Z,98281.56
2023-10-05T03:22:13.905Z,98284.00
2023-10-05T03:24:43.850Z,98283.03
2023-10-05T03:27:11.681Z,98287.69
2023-10-05T03:29:39.695Z,98289.41
2023-10-05T03:32:15.077Z,98278.94
2023-10-05T03:34:47.846Z,98286.63
2023-10-05T03:37:16.570Z,98280.94
2023-10-05T03:39:52.991Z,98278.38
2023-10-05T03:42:23.294Z,98275.69
2023-10-05T03:45:01.889Z,98277.94
2023-10-05T03:47:30.203Z,98275.97
2023-10-05T03:49:59.734Z,98269.50
2023-10-05T03:52:31.429Z,98276.38
2023-10-05T03:55:02.797Z,98270.31
2023-10-05T03:57:32.926Z,98279.13
2023-10-05T04:00:02.341Z,98278.72
2023-10-05T04:02:30.809Z,98275.00
2023-10-05T04:05:00.357Z,98274.88
2023-10-05T04:07:30.202Z,98275.75
2023-10-05T04:10:03.481Z,98269.66
2023-10-05T04:12:33.940Z,98264.53
2023-10-05T04:15:02.365Z,98268.94
2023-10-05T04:17:30.832Z,98273.22
2023-10-05T04:20:00.217Z,98278.72
2023-10-05T04:22:28.288Z,98272.91
2023-10-05T04:24:56.470Z,98273.22
2023-10-05T04:27:24.528Z,98276.75
2023-10-05T04:29:52.665Z,98270.78
2023-10-05T04:32:20.681Z,98273.22
2023-10-05T04:34:48.710Z,98275.56
2023-10-05T04:37:18.882Z,98277.44
2023-10-05T04:39:46.937Z,98271.81
2023-10-05T04:42:17.014Z,98267.56
2023-10-05T04:44:47.058Z,98280.94
2023-10-05T04:47:15.822Z,98276.03
2023-10-05T04:49:45.522Z,98285.81
2023-10-05T04:52:20.604Z,98269.13
2023-10-05T04:54:58.507Z,98279.03
2023-10-05T04:57:36.457Z,98271.22
2023-10-05T05:00:24.173Z,98269.91
2023-10-05T05:03:06.736Z,98268.88
2023-10-05T05:05:41.861Z,98275.19
2023-10-05T05:08:10.807Z,98263.81
2023-10-05T05:10:40.210Z,98268.09
2023-10-05T05:13:09.077Z,98262.22
2023-10-05T05:15:39.667Z,98268.34
2023-10-05T05:18:11.251Z,98267.50
2023-10-05T05:20:39.786Z,98276.28
2023-10-05T05:23:08.515Z,98269.31
2023-10-05T05:25:38.745Z,98269.16
2023-10-05T05:28:12.072Z,98270.84
2023-10-05T05:30:42.023Z,98264.78
2023-10-05T05:33:12.142Z,98267.50
2023-10-05T05:35:40.912Z,98265.47
2023-10-05T05:38:11.262Z,98260.81
2023-10-05T05:40:40.009Z,98260.00
2023-10-05T05:43:10.473Z,98260.09
2023-10-05T05:45:40.620Z,98270.84
2023-10-05T05:48:10.425Z,98271.31
2023-10-05T05:50:40.614Z,98272.88
2023-10-05T05:53:12.402Z,98264.19
2023-10-05T05:55:45.263Z,98264.50
2023-10-05T05:58:18.073Z,98258.25
2023-10-05T06:00:47.535Z,98260.03
2023-10-05T06:03:17.759Z,98262.91
2023-10-05T06:05:45.956Z,98269.88
2023-10-05T06:08:14.019Z,98267.59
2023-10-05T06:10:44.542Z,98271.97
2023-10-05T06:13:14.574Z,98270.41
2023-10-05T06:15:43.302Z,98284.25
2023-10-05T06:18:14.125Z,98279.53
2023-10-05T06:20:42.269Z,98286.88
2023-10-05T06:23:10.267Z,98298.38
2023-10-05T06:25:40.279Z,98296.00
2023-10-05T06:28:09.573Z,98306.38
2023-10-05T06:30:39.265Z,98302.69
2023-10-05T06:33:09.869Z,98315.75
2023-10-05T06:35:38.118Z,98314.66
2023-10-05T06:38:06.376Z,98314.94
2023-10-05T06:40:34.933Z,98306.28
2023-10-05T06:43:07.213Z,98317.34
2023-10-05T06:45:36.927Z,98312.38
2023-10-05T06:48:07.660Z,98311.28
2023-10-05T06:50:35.921Z,98314.94
2023-10-05T06:53:03.922Z,98315.38
2023-10-05T06:55:32.088Z,98327.75
2023-10-05T06:58:00.245Z,98325.25
2023-10-05T07:00:28.372Z,98329.41
2023-10-05T07:02:59.965Z,98328.72
2023-10-05T07:05:29.760Z,98330.00
2023-10-05T07:07:57.784Z,98328.28
2023-10-05T07:10:26.224Z,98338.38
2023-10-05T07:12:54.290Z,98333.00
2023-10-05T07:15:22.794Z,98322.63
2023-10-05T07:17:51.108Z,98325.06
2023-10-05T07:20:19.872Z,98332.88
2023-10-05T07:22:50.117Z,98322.53
2023-10-05T07:25:19.021Z,98324.13
2023-10-05T07:27:49.240Z,98328.22
2023-10-05T07:30:17.636Z,98333.53
2023-10-05T07:32:48.600Z,98336.19
2023-10-05T07:35:23.407Z,98339.78
2023-10-05T07:37:52.776Z,98344.19
2023-10-05T07:40:20.812Z,98345.59
2023-10-05T07:42:48.913Z,98343.03
2023-10-05T07:45:17.122Z,98350.28
2023-10-05T07:47:45.133Z,98356.69
2023-10-05T07:50:13.200Z,98354.69
2023-10-05T07:52:42.049Z,98366.31
2023-10-05T07:55:12.136Z,98362.41
2023-10-05T07:57:40.386Z,98360.69
2023-10-05T08:00:13.859Z,98366.94
2023-10-05T08:02:44.303Z,98366.34
2023-10-05T08:05:14.002Z,98371.38
2023-10-05T08:07:42.443Z,98382.31
2023-10-05T08:10:16.859Z,98386.84
2023-10-05T08:12:45.238Z,98395.53
2023-10-05T08:15:15.501Z,98397.94
2023-10-05T08:17:43.642Z,98396.06
2023-10-05T08:20:13.059Z,98390.28
2023-10-05T08:22:41.048Z,98379.75
2023-10-05T08:25:13.304Z,98393.97
2023-10-05T08:27:43.953Z,98400.78
2023-10-05T08:30:13.159Z,98399.38
2023-10-05T08:32:41.406Z,98400.66
2023-10-05T08:35:14.522Z,98400.56
2023-10-05T08:37:50.183Z,98396.28
2023-10-05T08:40:38.894Z,98395.16
2023-10-05T08:43:12.902Z,98398.28
2023-10-05T08:45:47.685Z,98403.69
2023-10-05T08:48:20.661Z,98394.44
2023-10-05T08:50:51.135Z,98394.59
2023-10-05T08:53:22.267Z,98392.75
2023-10-05T08:55:52.431Z,98388.19
2023-10-05T08:58:23.468Z,98393.00
2023-10-05T09:00:52.698Z,98392.28
2023-10-05T09:03:36.830Z,98386.00
2023-10-05T09:06:22.879Z,98387.59
2023-10-05T09:08:55.097Z,98398.22
2023-10-05T09:11:32.581Z,98405.75
2023-10-05T09:14:14.112Z,98395.91
2023-10-05T09:16:47.150Z,98394.75
2023-10-05T09:19:19.345Z,98403.00
2023-10-05T09:22:07.473Z,98402.69
2023-10-05T09:24:38.482Z,98397.84
2023-10-05T09:27:14.168Z,98406.25
2023-10-05T09:29:44.064Z,98398.78
2023-10-05T09:32:27.621Z,98398.69
2023-10-05T09:35:05.347Z,98400.81
2023-10-05T09:37:34.405Z,98407.84
2023-10-05T09:40:02.855Z,98409.56
2023-10-05T09:42:35.257Z,98412.69
2023-10-05T09:45:10.644Z,98415.78
2023-10-05T09:47:38.835Z,98415.34
2023-10-05T09:50:11.373Z,98417.50
2023-10-05T09:52:39.752Z,98412.72
2023-10-05T09:55:08.994Z,98413.41
2023-10-05T09:57:42.653Z,98417.75
2023-10-05T10:00:31.254Z,98416.44
2023-10-05T10:03:00.487Z,98423.53
2023-10-05T10:05:31.685Z,98414.75
2023-10-05T10:08:10.319Z,98420.88
2023-10-05T10:10:48.238Z,98430.66
2023-10-05T10:13:16.214Z,98426.06
2023-10-05T10:15:48.292Z,98426.75
2023-10-05T10:18:16.542Z,98428.47
2023-10-05T10:20:50.698Z,98425.81
2023-10-05T10:23:23.827Z,98426.72
2023-10-05T10:25:53.021Z,98430.84
2023-10-05T10:28:44.733Z,98432.97
2023-10-05T10:31:17.827Z,98429.78
2023-10-05T10:33:51.226Z,98422.66
2023-10-05T10:36:22.411Z,98424.84
2023-10-05T10:38:52.364Z,98416.53
2023-10-05T10:41:22.383Z,98409.94
2023-10-05T10:43:55.427Z,98419.41
2023-10-05T10:46:31.206Z,98422.34
2023-10-05T10:49:00.067Z,98408.41
2023-10-05T10:51:32.990Z,98412.41
2023-10-05T10:54:09.599Z,98404.16
2023-10-05T10:56:43.365Z,98412.22
2023-10-05T10:59:15.971Z,98414.88
2023-10-05T11:01:45.735Z,98410.94
2023-10-05T11:04:26.925Z,98406.53
2023-10-05T11:06:58.081Z,98408.47
2023-10-05T11:09:32.788Z,98406.19
2023-10-05T11:12:10.196Z,98389.25
2023-10-05T11:14:44.578Z,98384.06
2023-10-05T11:17:36.804Z,98388.31
2023-10-05T11:20:17.048Z,98387.97
2023-10-05T11:22:45.065Z,98384.53
2023-10-05T11:25:24.978Z,98380.25
2023-10-05T11:27:57.073Z,98374.91
2023-10-05T11:30:38.295Z,98376.75
2023-10-05T11:33:57.298Z,98374.72
2023-10-05T11:36:19.275Z,98383.97
2023-10-05T11:38:49.980Z,98360.94
2023-10-05T11:41:25.142Z,98372.72
2023-10-05T11:43:54.708Z,98363.44
2023-10-05T11:46:27.834Z,98358.63
2023-10-05T11:48:57.419Z,98357.94
2023-10-05T11:51:29.461Z,98358.56
2023-10-05T11:54:01.152Z,98353.91
2023-10-05T11:56:32.331Z,98358.91
2023-10-05T11:59:01.249Z,98355.66
2023-10-05T12:01:29.493Z,98362.91
2023-10-05T12:04:00.109Z,98354.09
2023-10-05T12:06:52.169Z,98354.06
2023-10-05T12:09:32.056Z,98343.22
2023-10-05T12:12:00.657Z,98349.63
2023-10-05T12:14:28.711Z,98352.38
2023-10-05T12:16:57.818Z,98348.69
2023-10-05T12:22:34.073Z,98347.00
2023-10-05T12:25:08.627Z,98343.31
2023-10-05T12:27:37.467Z,98343.78
2023-10-05T12:30:12.473Z,98342.81
2023-10-05T12:32:46.452Z,98347.69
2023-10-05T12:35:21.392Z,98346.97
2023-10-05T12:37:54.301Z,98356.75
2023-10-05T12:40:28.884Z,98347.31
2023-10-05T12:43:16.440Z,98351.94
2023-10-05T12:46:11.545Z,98356.91
2023-10-05T12:48:44.980Z,98369.53
2023-10-05T12:51:17.077Z,98362.59
2023-10-05T12:53:46.702Z,98364.16
2023-10-05T12:56:21.179Z,98363.44
2023-10-05T12:58:49.596Z,98369.22
2023-10-05T13:01:19.332Z,98362.59
2023-10-05T13:03:49.499Z,98367.72
2023-10-05T13:06:18.997Z,98371.97
2023-10-05T13:08:47.058Z,98377.91
2023-10-05T13:11:15.327Z,98369.97
2023-10-05T13:13:43.374Z,98364.34
2023-10-05T13:16:15.795Z,98382.38
2023-10-05T13:18:45.306Z,98377.53
2023-10-05T13:21:15.873Z,98376.69
2023-10-05T13:23:46.741Z,98365.25
2023-10-05T13:26:19.618Z,98361.28
2023-10-05T13:28:48.638Z,98369.03
2023-10-05T13:31:21.680Z,98376.69
2023-10-05T13:33:50.111Z,98374.25
2023-10-05T13:36:20.557Z,98367.09
2023-10-05T13:38:50.192Z,98362.44
2023-10-05T13:41:20.130Z,98360.50
2023-10-05T13:43:49.175Z,98371.94
2023-10-05T13:46:20.398Z,98368.56
2023-10-05T13:48:50.480Z,98372.34
2023-10-05T13:51:19.885Z,98370.34
2023-10-05T13:53:55.488Z,98374.91
2023-10-05T13:56:29.337Z,98370.28
2023-10-05T13:59:03.803Z,98365.59
2023-10-05T14:01:36.338Z,98358.31
2023-10-05T14:04:05.858Z,98356.72
2023-10-05T14:06:36.222Z,98359.00
2023-10-05T14:09:07.853Z,98357.41
2023-10-05T14:11:38.487Z,98359.53
2023-10-05T14:14:07.319Z,98359.53
2023-10-05T14:16:40.329Z,98356.97
2023-10-05T14:19:11.327Z,98356.03
2023-10-05T14:21:44.785Z,98352.75
2023-10-05T14:24:22.701Z,98354.75
2023-10-05T14:26:50.807Z,98359.69
2023-10-05T14:30:07.638Z,98347.38
2023-10-05T14:32:50.919Z,98353.84
2023-10-05T14:35:20.534Z,98351.50
2023-10-05T14:37:51.294Z,98354.75
2023-10-05T14:40:28.133Z,98346.72
2023-10-05T14:42:57.228Z,98351.09
2023-10-05T14:45:28.239Z,98350.38
2023-10-05T14:47:59.345Z,98349.13
2023-10-05T14:50:28.438Z,98347.97
2023-10-05T14:53:00.275Z,98341.59
2023-10-05T14:55:29.707Z,98340.44
2023-10-05T14:57:57.899Z,98341.50
2023-10-05T15:00:30.279Z,98345.06
2023-10-05T15:03:00.713Z,98348.31
2023-10-05T15:05:28.866Z,98357.72
2023-10-05T15:08:03.961Z,98353.28
2023-10-05T15:10:33.836Z,98350.38
2023-10-05T15:13:01.810Z,98345.16
2023-10-05T15:15:31.265Z,98344.91
2023-10-05T15:17:59.466Z,98348.59
2023-10-05T15:20:28.362Z,98353.41
2023-10-05T15:22:56.546Z,98350.47
2023-10-05T15:25:25.137Z,98354.97
2023-10-05T15:27:55.603Z,98356.91
2023-10-05T15:30:25.018Z,98356.84
2023-10-05T15:32:53.311Z,98358.72
2023-10-05T15:35:24.828Z,98370.03
2023-10-05T15:37:53.307Z,98363.38
2023-10-05T15:40:21.817Z,98369.28
2023-10-05T15:42:52.645Z,98366.50
2023-10-05T15:45:22.892Z,98369.34
2023-10-05T15:47:52.318Z,98354.53
2023-10-05T15:50:23.212Z,98364.16
2023-10-05T15:52:53.023Z,98360.22
2023-10-05T15:55:21.999Z,98356.25
2023-10-05T15:57:50.458Z,98366.22
2023-10-05T16:00:18.727Z,98365.44
2023-10-05T16:02:49.559Z,98370.84
2023-10-05T16:05:18.209Z,98367.13
2023-10-05T16:07:47.397Z,98375.59
2023-10-05T16:10:18.672Z,98377.75
2023-10-05T16:12:46.939Z,98375.56
2023-10-05T16:15:15.192Z,98376.03
2023-10-05T16:18:18.765Z,98377.94
2023-10-05T16:20:53.548Z,98379.44
2023-10-05T16:23:21.620Z,98383.69
2023-10-05T16:25:49.610Z,98384.38
2023-10-05T16:28:18.448Z,98386.63
2023-10-05T16:30:47.691Z,98387.75
2023-10-05T16:33:21.617Z,98389.47
2023-10-05T16:35:51.062Z,98390.75
2023-10-05T16:38:19.869Z,98387.38
2023-10-05T16:40:47.896Z,98385.97
2023-10-05T16:43:16.118Z,98398.22
2023-10-05T16:45:48.152Z,98392.22
2023-10-05T16:48:20.353Z,98393.00
2023-10-05T16:50:50.296Z,98397.31
2023-10-05T16:53:19.456Z,98392.88
2023-10-05T16:55:48.961Z,98395.50
2023-10-05T16:58:17.088Z,98397.63
2023-10-05T17:00:45.084Z,98404.19
2023-10-05T17:03:13.480Z,98404.50
2023-10-05T17:05:57.814Z,98404.91
2023-10-05T17:08:28.509Z,98411.63
2023-10-05T17:10:56.862Z,98416.75
2023-10-05T17:13:25.234Z,98412.34
2023-10-05T17:15:53.400Z,98417.66
2023-10-05T17:18:21.416Z,98424.06
2023-10-05T17:20:50.902Z,98422.06
2023-10-05T17:23:18.987Z,98431.31
2023-10-05T17:25:47.800Z,98428.59
2023-10-05T17:28:19.635Z,98433.00
2023-10-05T17:30:48.145Z,98432.63
2023-10-05T17:33:16.246Z,98428.31
2023-10-05T17:35:44.261Z,98428.47
2023-10-05T17:38:14.767Z,98429.78
2023-10-05T17:40:42.839Z,98436.47
2023-10-05T17:43:10.869Z,98437.44
2023-10-05T17:45:43.985Z,98434.75
2023-10-05T17:48:12.209Z,98424.09
2023-10-05T17:50:43.107Z,98433.50
2023-10-05T17:53:12.215Z,98439.19
2023-10-05T17:55:42.394Z,98436.22
2023-10-05T17:58:12.608Z,98438.91
2023-10-05T18:00:41.276Z,98437.66
2023-10-05T18:03:09.358Z,98445.03
2023-10-05T18:05:39.876Z,98441.50
2023-10-05T18:08:07.989Z,98447.75
2023-10-05T18:10:43.418Z,98456.59
2023-10-05T18:13:11.452Z,98461.41
2023-10-05T18:15:40.017Z,98455.16
2023-10-05T18:18:09.497Z,98465.41
2023-10-05T18:20:38.267Z,98463.84
2023-10-05T18:23:09.805Z,98463.38
2023-10-05T18:25:37.809Z,98467.09
2023-10-05T18:28:07.707Z,98462.13
2023-10-05T18:30:35.669Z,98464.53
2023-10-05T18:33:05.623Z,98459.25
2023-10-05T18:35:35.903Z,98460.13
2023-10-05T18:38:06.530Z,98462.56
2023-10-05T18:40:34.815Z,98456.56
2023-10-05T18:43:05.206Z,98467.78
2023-10-05T18:45:35.349Z,98468.63
2023-10-05T18:48:03.626Z,98468.78
2023-10-05T18:50:31.965Z,98464.38
2023-10-05T18:53:00.037Z,98467.44
2023-10-05T18:55:28.252Z,98472.53
2023-10-05T18:57:56.242Z,98469.56
2023-10-05T19:00:24.280Z,98470.97
2023-10-05T19:02:53.720Z,98468.09
2023-10-05T19:05:21.979Z,98472.09
2023-10-05T19:07:50.174Z,98465.69
2023-10-05T19:10:19.391Z,98474.06
2023-10-05T19:12:47.692Z,98475.72
2023-10-05T19:15:16.006Z,98471.72
2023-10-05T19:17:43.976Z,98474.13
2023-10-05T19:20:13.373Z,98484.78
2023-10-05T19:22:41.468Z,98484.59
2023-10-05T19:25:12.872Z,98480.47
2023-10-05T19:27:41.087Z,98470.94
2023-10-05T19:30:14.530Z,98477.59
2023-10-05T19:32:44.053Z,98482.78
2023-10-05T19:35:13.800Z,98486.16
2023-10-05T19:37:41.992Z,98481.16
2023-10-05T19:40:10.940Z,98472.75
2023-10-05T19:42:39.299Z,98475.00
2023-10-05T19:45:08.987Z,98488.00
2023-10-05T19:47:37.143Z,98486.97
2023-10-05T19:50:07.135Z,98487.72
2023-10-05T19:52:41.114Z,98486.34
2023-10-05T19:55:12.251Z,98490.69
2023-10-05T19:57:40.371Z,98495.47
2023-10-05T20:00:15.355Z,98505.66
2023-10-05T20:02:44.821Z,98513.53
2023-10-05T20:05:13.759Z,98512.28
2023-10-05T20:07:47.577Z,98517.69
2023-10-05T20:10:18.156Z,98518.06
2023-10-05T20:12:46.133Z,98517.72
2023-10-05T20:15:14.098Z,98523.97
2023-10-05T20:17:42.148Z,98522.38
2023-10-05T20:20:12.971Z,98524.94
2023-10-05T20:22:41.154Z,98509.31
2023-10-05T20:25:10.915Z,98513.34
2023-10-05T20:27:39.164Z,98522.41
2023-10-05T20:30:10.645Z,98516.56
2023-10-05T20:32:38.827Z,98517.44
2023-10-05T20:35:07.640Z,98518.53
2023-10-05T20:37:35.907Z,98526.03
2023-10-05T20:40:04.965Z,98525.16
2023-10-05T20:42:34.558Z,98519.28
2023-10-05T20:45:03.350Z,98518.56
2023-10-05T20:47:33.212Z,98522.41
2023-10-05T20:50:01.291Z,98523.59
2023-10-05T20:52:29.833Z,98517.22
2023-10-05T20:54:57.884Z,98517.63
2023-10-05T20:57:25.919Z,98509.41
2023-10-05T20:59:55.295Z,98517.00
2023-10-05T21:02:23.309Z,98512.59
2023-10-05T21:04:51.443Z,98523.75
2023-10-05T21:07:19.727Z,98530.38
2023-10-05T21:09:47.710Z,98532.06
2023-10-05T21:12:16.602Z,98534.88
2023-10-05T21:14:45.019Z,98536.84
2023-10-05T21:17:14.530Z,98539.66
2023-10-05T21:19:42.611Z,98538.44
2023-10-05T21:22:12.394Z,98536.03
2023-10-05T21:24:41.030Z,98530.50
2023-10-05T21:27:09.512Z,98537.00
2023-10-05T21:29:37.542Z,98532.09
2023-10-05T21:32:05.665Z,98544.56
2023-10-05T21:34:36.123Z,98547.53
2023-10-05T21:37:05.974Z,98544.09
2023-10-05T21:39:34.765Z,98546.91
2023-10-05T21:42:02.911Z,98553.88
2023-10-05T21:44:32.722Z,98544.72
2023-10-05T21:47:02.113Z,98540.66
2023-10-05T21:49:30.220Z,98537.63
2023-10-05T21:51:59.618Z,98545.41
2023-10-05T21:54:27.632Z,98540.91
2023-10-05T21:56:56.447Z,98542.72
2023-10-05T21:59:26.434Z,98547.88
2023-10-05T22:01:54.558Z,98554.22
2023-10-05T22:04:22.670Z,98555.31
2023-10-05T22:06:50.655Z,98555.16
2023-10-05T22:09:20.904Z,98557.66
2023-10-05T22:11:48.991Z,98560.44
2023-10-05T22:14:17.976Z,98546.13
2023-10-05T22:16:46.355Z,98544.22
2023-10-05T22:19:14.463Z,98545.81
2023-10-05T22:21:42.467Z,98543.22
2023-10-05T22:24:12.017Z,98540.66
2023-10-05T22:26:41.430Z,98533.31
2023-10-05T22:29:09.664Z,98537.72
2023-10-05T22:31:39.296Z,98542.03
2023-10-05T22:34:07.902Z,98534.19
2023-10-05T22:36:36.872Z,98534.38
2023-10-05T22:39:06.312Z,98537.00
2023-10-05T22:41:34.357Z,98533.78
2023-10-05T22:44:03.791Z,98534.66
2023-10-05T22:46:31.880Z,98519.38
2023-10-05T22:48:59.914Z,98520.00
2023-10-05T22:51:27.884Z,98529.13
2023-10-05T22:53:56.040Z,98533.31
2023-10-05T22:56:24.174Z,98537.47
2023-10-05T22:58:52.227Z,98529.28
2023-10-05T23:01:21.652Z,98526.00
2023-10-05T23:03:49.730Z,98518.06
2023-10-05T23:06:18.835Z,98518.25
2023-10-05T23:08:46.857Z,98523.03
2023-10-05T23:11:14.813Z,98512.28
2023-10-05T23:13:43.628Z,98527.28
2023-10-05T23:16:19.064Z,98517.91
2023-10-05T23:18:51.892Z,98518.75
2023-10-05T23:21:19.899Z,98512.88
2023-10-05T23:23:47.890Z,98519.72
2023-10-05T23:26:16.389Z,98519.09
2023-10-05T23:28:45.044Z,98515.94
2023-10-05T23:31:17.299Z,98516.91
2023-10-05T23:33:46.894Z,98515.47
2023-10-05T23:36:19.531Z,98524.13
2023-10-05T23:38:47.715Z,98523.03
2023-10-05T23:41:15.982Z,98534.53
2023-10-05T23:43:44.764Z,98530.88
2023-10-05T23:46:16.118Z,98535.63
2023-10-05T23:48:44.335Z,98538.31
2023-10-05T23:51:12.387Z,98538.66
2023-10-05T23:53:41.723Z,98537.69
2023-10-05T23:56:10.955Z,98536.34
2023-10-05T23:58:39.299Z,98539.88
